createdAt,value
2022-11-21T00:01:37.220Z,100657.25
2022-11-21T00:04:04.945Z,100657.28
2022-11-21T00:06:32.383Z,100670.97
2022-11-21T00:08:59.869Z,100664.91
2022-11-21T00:11:27.340Z,100657.00
2022-11-21T00:13:54.824Z,100657.00
2022-11-21T00:16:22.334Z,100650.84
2022-11-21T00:18:49.887Z,100649.25
2022-11-21T00:21:20.407Z,100650.94
2022-11-21T00:23:49.395Z,100648.44
2022-11-21T00:26:18.148Z,100645.88
2022-11-21T00:28:46.300Z,100648.38
2022-11-21T00:31:22.447Z,100640.66
2022-11-21T00:33:49.969Z,100639.03
2022-11-21T00:36:17.650Z,100654.53
2022-11-21T00:38:45.283Z,100652.00
2022-11-21T00:41:12.770Z,100649.34
2022-11-21T00:43:40.240Z,100651.03
2022-11-21T00:46:07.749Z,100639.78
2022-11-21T00:48:35.242Z,100640.00
2022-11-21T00:51:02.736Z,100633.13
2022-11-21T00:53:31.281Z,100632.16
2022-11-21T00:55:59.153Z,100633.06
2022-11-21T00:58:27.319Z,100641.69
2022-11-21T01:01:03.835Z,100634.72
2022-11-21T01:03:33.218Z,100634.56
2022-11-21T01:06:09.380Z,100641.50
2022-11-21T01:08:39.869Z,100621.56
2022-11-21T01:11:13.632Z,100639.88
2022-11-21T01:13:41.923Z,100652.72
2022-11-21T01:16:18.574Z,100643.22
2022-11-21T01:18:46.518Z,100644.81
2022-11-21T01:21:17.909Z,100645.63
2022-11-21T01:23:45.729Z,100655.00
2022-11-21T01:26:18.760Z,100658.25
2022-11-21T01:28:46.817Z,100650.44
2022-11-21T01:31:23.328Z,100647.97
2022-11-21T01:33:51.157Z,100644.59
2022-11-21T01:36:27.964Z,100639.38
2022-11-21T01:38:57.132Z,100644.47
2022-11-21T01:41:31.338Z,100639.22
2022-11-21T01:43:59.200Z,100628.75
2022-11-21T01:46:27.352Z,100623.69
2022-11-21T01:49:00.867Z,100630.63
2022-11-21T01:51:56.017Z,100631.94
2022-11-21T01:54:24.184Z,100616.41
2022-11-21T01:57:03.025Z,100621.34
2022-11-21T01:59:38.932Z,100620.47
2022-11-21T02:02:09.410Z,100621.53
2022-11-21T02:04:37.972Z,100616.22
2022-11-21T02:07:07.825Z,100628.50
2022-11-21T02:09:38.590Z,100629.50
2022-11-21T02:12:15.073Z,100632.00
2022-11-21T02:14:45.143Z,100637.00
2022-11-21T02:17:12.676Z,100638.41
2022-11-21T02:19:55.206Z,100632.59
2022-11-21T02:22:38.860Z,100622.75
2022-11-21T02:25:32.357Z,100630.53
2022-11-21T02:28:03.578Z,100637.34
2022-11-21T02:30:32.861Z,100646.78
2022-11-21T02:33:00.625Z,100647.50
2022-11-21T02:35:28.479Z,100640.22
2022-11-21T02:38:00.551Z,100645.72
2022-11-21T02:40:37.204Z,100633.81
2022-11-21T02:43:18.314Z,100628.03
2022-11-21T02:45:47.309Z,100636.84
2022-11-21T02:48:15.202Z,100624.50
2022-11-21T02:50:45.799Z,100625.28
2022-11-21T02:53:19.151Z,100618.63
2022-11-21T02:55:46.653Z,100623.22
2022-11-21T02:58:14.489Z,100621.59
2022-11-21T03:00:43.458Z,100632.78
2022-11-21T03:03:11.178Z,100629.28
2022-11-21T03:05:39.951Z,100623.56
2022-11-21T03:08:07.928Z,100624.66
2022-11-21T03:10:35.680Z,100622.34
2022-11-21T03:13:03.198Z,100618.88
2022-11-21T03:15:33.524Z,100607.00
2022-11-21T03:18:03.181Z,100606.16
2022-11-21T03:20:32.469Z,100591.50
2022-11-21T03:23:00.133Z,100583.22
2022-11-21T03:25:28.286Z,100582.97
2022-11-21T03:27:56.190Z,100586.63
2022-11-21T03:30:26.035Z,100591.75
2022-11-21T03:32:56.899Z,100587.38
2022-11-21T03:35:24.748Z,100591.63
2022-11-21T03:37:52.225Z,100589.84
2022-11-21T03:40:19.838Z,100588.03
2022-11-21T03:42:47.321Z,100600.44
2022-11-21T03:45:14.912Z,100593.47
2022-11-21T03:47:42.654Z,100596.88
2022-11-21T03:50:10.825Z,100590.09
2022-11-21T03:52:38.275Z,100590.31
2022-11-21T03:55:06.087Z,100588.75
2022-11-21T03:57:33.611Z,100597.22
2022-11-21T04:00:01.108Z,100589.56
2022-11-21T04:02:28.592Z,100590.34
2022-11-21T04:04:56.050Z,100591.19
2022-11-21T04:07:23.535Z,100588.63
2022-11-21T04:09:51.029Z,100597.75
2022-11-21T04:12:18.503Z,100587.50
2022-11-21T04:14:46.035Z,100586.63
2022-11-21T04:17:13.518Z,100577.03
2022-11-21T04:19:40.989Z,100574.47
2022-11-21T04:22:08.479Z,100567.41
2022-11-21T04:24:35.919Z,100574.59
2022-11-21T04:27:03.531Z,100572.81
2022-11-21T04:29:30.997Z,100581.41
2022-11-21T04:31:58.510Z,100569.34
2022-11-21T04:34:26.159Z,100573.56
2022-11-21T04:36:53.797Z,100579.59
2022-11-21T04:39:21.303Z,100573.06
2022-11-21T04:41:48.972Z,100585.22
2022-11-21T04:44:16.447Z,100578.41
2022-11-21T04:46:43.931Z,100568.16
2022-11-21T04:49:11.521Z,100558.78
2022-11-21T04:51:38.998Z,100554.59
2022-11-21T04:54:06.585Z,100543.34
2022-11-21T04:56:34.044Z,100538.41
2022-11-21T04:59:01.500Z,100542.81
2022-11-21T05:01:29.067Z,100544.50
2022-11-21T05:03:56.641Z,100542.91
2022-11-21T05:06:24.153Z,100543.88
2022-11-21T05:08:53.995Z,100546.53
2022-11-21T05:11:39.877Z,100540.56
2022-11-21T05:14:07.420Z,100530.34
2022-11-21T05:16:35.210Z,100533.88
2022-11-21T05:19:02.678Z,100542.47
2022-11-21T05:21:30.176Z,100531.16
2022-11-21T05:23:57.784Z,100536.44
2022-11-21T05:26:25.321Z,100521.09
2022-11-21T05:28:52.840Z,100528.88
2022-11-21T05:31:20.469Z,100525.28
2022-11-21T05:33:47.985Z,100516.97
2022-11-21T05:36:15.425Z,100516.00
2022-11-21T05:38:42.978Z,100501.50
2022-11-21T05:41:10.494Z,100494.72
2022-11-21T05:43:45.949Z,100490.38
2022-11-21T05:46:15.933Z,100500.00
2022-11-21T05:48:43.860Z,100496.47
2022-11-21T05:51:11.467Z,100491.47
2022-11-21T05:53:39.037Z,100480.19
2022-11-21T05:56:09.359Z,100494.75
2022-11-21T05:58:37.309Z,100503.50
2022-11-21T06:01:06.135Z,100487.97
2022-11-21T06:03:36.075Z,100487.00
2022-11-21T06:06:10.666Z,100487.03
2022-11-21T06:08:41.101Z,100482.81
2022-11-21T06:11:09.939Z,100483.88
2022-11-21T06:13:37.816Z,100479.44
2022-11-21T06:16:11.108Z,100456.19
2022-11-21T06:18:43.753Z,100473.69
2022-11-21T06:21:14.108Z,100478.75
2022-11-21T06:23:41.703Z,100481.44
2022-11-21T06:26:13.955Z,100471.94
2022-11-21T06:28:42.676Z,100474.69
2022-11-21T06:31:13.050Z,100470.38
2022-11-21T06:33:41.787Z,100466.22
2022-11-21T06:36:12.799Z,100472.28
2022-11-21T06:38:40.764Z,100475.69
2022-11-21T06:41:12.551Z,100461.97
2022-11-21T06:43:40.419Z,100460.44
2022-11-21T06:46:08.264Z,100455.19
2022-11-21T06:48:37.321Z,100456.94
2022-11-21T06:51:08.664Z,100443.22
2022-11-21T06:53:36.456Z,100439.94
2022-11-21T06:56:04.985Z,100445.03
2022-11-21T06:58:33.231Z,100440.81
2022-11-21T07:01:09.832Z,100437.41
2022-11-21T07:03:37.825Z,100426.28
2022-11-21T07:06:06.016Z,100437.31
2022-11-21T07:08:36.282Z,100443.53
2022-11-21T07:11:25.493Z,100455.41
2022-11-21T07:13:54.164Z,100450.28
2022-11-21T07:16:21.761Z,100455.47
2022-11-21T07:18:49.411Z,100439.28
2022-11-21T07:21:17.003Z,100428.13
2022-11-21T07:23:44.555Z,100435.13
2022-11-21T07:26:12.376Z,100429.09
2022-11-21T07:28:40.025Z,100431.66
2022-11-21T07:31:13.142Z,100424.84
2022-11-21T07:33:43.267Z,100430.06
2022-11-21T07:36:11.116Z,100427.56
2022-11-21T07:38:38.643Z,100431.91
2022-11-21T07:41:06.155Z,100430.19
2022-11-21T07:43:33.661Z,100426.88
2022-11-21T07:46:01.158Z,100427.81
2022-11-21T07:48:28.788Z,100423.59
2022-11-21T07:50:56.264Z,100432.31
2022-11-21T07:53:24.112Z,100435.88
2022-11-21T07:55:51.603Z,100429.84
2022-11-21T07:58:19.262Z,100420.47
2022-11-21T08:00:46.835Z,100418.91
2022-11-21T08:03:14.845Z,100405.13
2022-11-21T08:05:44.506Z,100414.63
2022-11-21T08:08:13.984Z,100401.75
2022-11-21T08:10:43.997Z,100397.50
2022-11-21T08:13:12.668Z,100394.09
2022-11-21T08:15:40.567Z,100394.22
2022-11-21T08:18:12.778Z,100391.69
2022-11-21T08:20:40.569Z,100395.13
2022-11-21T08:23:09.907Z,100398.53
2022-11-21T08:25:43.133Z,100396.00
2022-11-21T08:28:12.367Z,100386.56
2022-11-21T08:30:41.147Z,100388.41
2022-11-21T08:33:09.355Z,100380.78
2022-11-21T08:35:38.657Z,100376.44
2022-11-21T08:38:06.910Z,100366.25
2022-11-21T08:40:35.580Z,100371.38
2022-11-21T08:43:05.987Z,100359.47
2022-11-21T08:45:35.205Z,100352.66
2022-11-21T08:48:03.021Z,100354.47
2022-11-21T08:50:32.665Z,100356.16
2022-11-21T08:53:02.588Z,100356.28
2022-11-21T08:55:31.101Z,100353.75
2022-11-21T08:57:59.157Z,100346.94
2022-11-21T09:00:27.603Z,100349.69
2022-11-21T09:02:55.096Z,100342.72
2022-11-21T09:05:22.593Z,100340.19
2022-11-21T09:07:56.409Z,100336.72
2022-11-21T09:10:24.241Z,100326.56
2022-11-21T09:12:51.796Z,100329.22
2022-11-21T09:15:36.943Z,100324.13
2022-11-21T09:18:05.400Z,100317.28
2022-11-21T09:20:34.955Z,100313.13
2022-11-21T09:23:08.207Z,100308.03
2022-11-21T09:25:35.915Z,100303.66
2022-11-21T09:28:05.396Z,100307.09
2022-11-21T09:30:32.993Z,100302.13
2022-11-21T09:33:04.685Z,100292.66
2022-11-21T09:35:32.816Z,100293.59
2022-11-21T09:38:01.428Z,100289.47
2022-11-21T09:40:31.450Z,100290.44
2022-11-21T09:43:38.194Z,100302.53
2022-11-21T09:46:17.504Z,100297.50
2022-11-21T09:48:56.085Z,100287.16
2022-11-21T09:51:25.051Z,100284.53
2022-11-21T09:54:08.652Z,100282.00
2022-11-21T09:56:39.913Z,100285.50
2022-11-21T09:59:07.365Z,100283.84
2022-11-21T10:01:35.812Z,100272.75
2022-11-21T10:04:04.622Z,100272.78
2022-11-21T10:06:54.978Z,100271.16
2022-11-21T10:09:37.191Z,100265.19
2022-11-21T10:12:38.896Z,100279.81
2022-11-21T10:15:15.929Z,100267.84
2022-11-21T10:17:59.057Z,100260.13
2022-11-21T10:20:48.663Z,100261.88
2022-11-21T10:23:31.343Z,100247.38
2022-11-21T10:26:27.483Z,100239.69
2022-11-21T10:29:06.793Z,100189.69
2022-11-21T10:31:39.299Z,100246.59
2022-11-21T10:34:14.041Z,100240.59
2022-11-21T10:36:45.756Z,100233.78
2022-11-21T10:39:24.125Z,100229.50
2022-11-21T10:41:58.842Z,100222.59
2022-11-21T10:44:46.626Z,100218.34
2022-11-21T10:47:28.377Z,100223.53
2022-11-21T10:50:07.166Z,100232.22
2022-11-21T10:52:56.271Z,100223.63
2022-11-21T10:55:23.827Z,100208.16
2022-11-21T10:57:54.228Z,100208.16
2022-11-21T11:00:27.109Z,100203.94
2022-11-21T11:02:57.690Z,100200.47
2022-11-21T11:05:27.189Z,100191.84
2022-11-21T11:08:00.831Z,100191.00
2022-11-21T11:10:29.406Z,100184.97
2022-11-21T11:13:44.573Z,100183.22
2022-11-21T11:16:05.640Z,100166.00
2022-11-21T11:18:36.317Z,100172.88
2022-11-21T11:21:21.932Z,100169.34
2022-11-21T11:23:54.944Z,100168.53
2022-11-21T11:26:32.642Z,100167.66
2022-11-21T11:29:10.675Z,100164.19
2022-11-21T11:32:01.157Z,100152.84
2022-11-21T11:34:42.921Z,100155.38
2022-11-21T11:37:41.013Z,100137.22
2022-11-21T11:40:39.347Z,100132.88
2022-11-21T11:43:47.179Z,100126.63
2022-11-21T11:46:43.573Z,100116.09
2022-11-21T11:49:21.166Z,100100.41
2022-11-21T11:51:55.169Z,100100.28
2022-11-21T11:54:30.911Z,100095.16
2022-11-21T11:56:59.172Z,100080.59
2022-11-21T11:59:37.319Z,100077.09
2022-11-21T12:02:28.940Z,100068.19
2022-11-21T12:05:26.297Z,100053.41
2022-11-21T12:08:41.331Z,100040.47
2022-11-21T12:12:01.289Z,100032.59
2022-11-21T12:14:52.478Z,100024.00
2022-11-21T12:17:26.567Z,100024.81
2022-11-21T12:19:55.779Z,100021.53
2022-11-21T12:22:23.513Z,100008.53
2022-11-21T12:24:51.020Z,100007.78
2022-11-21T12:27:29.432Z,100011.31
2022-11-21T12:30:22.096Z,99985.81
2022-11-21T12:32:49.489Z,99977.13
2022-11-21T12:35:26.416Z,99975.44
2022-11-21T12:38:21.448Z,99970.22
2022-11-21T12:41:29.152Z,99962.53
2022-11-21T12:44:17.184Z,99956.69
2022-11-21T12:46:56.496Z,99953.19
2022-11-21T12:49:54.949Z,99948.03
2022-11-21T12:52:48.658Z,99943.97
2022-11-21T12:55:39.905Z,99942.16
2022-11-21T12:58:23.317Z,99932.75
2022-11-21T13:01:21.496Z,99933.63
2022-11-21T13:04:05.284Z,99918.09
2022-11-21T13:06:39.311Z,99910.31
2022-11-21T13:09:10.921Z,99897.28
2022-11-21T13:12:01.226Z,99905.13
2022-11-21T13:14:34.605Z,99882.66
2022-11-21T13:17:28.136Z,99882.72
2022-11-21T13:20:01.493Z,99879.16
2022-11-21T13:22:38.439Z,99875.75
2022-11-21T13:25:39.678Z,99873.25
2022-11-21T13:28:19.486Z,99869.78
2022-11-21T13:31:00.997Z,99851.81
2022-11-21T13:33:37.382Z,99860.47
2022-11-21T13:36:09.096Z,99848.44
2022-11-21T13:38:52.706Z,99843.28
2022-11-21T13:41:52.802Z,99827.78
2022-11-21T13:44:32.215Z,99832.97
2022-11-21T13:47:18.289Z,99821.81
2022-11-21T13:49:55.525Z,99809.78
2022-11-21T13:52:36.645Z,99805.50
2022-11-21T13:55:44.499Z,99802.09
2022-11-21T13:58:33.783Z,99810.66
2022-11-21T14:01:19.166Z,99795.22
2022-11-21T14:04:25.753Z,99803.81
2022-11-21T14:06:53.404Z,99800.34
2022-11-21T14:09:23.103Z,99795.25
2022-11-21T14:11:52.096Z,99793.59
2022-11-21T14:14:41.323Z,99801.34
2022-11-21T14:17:27.763Z,99788.41
2022-11-21T14:19:57.493Z,99787.53
2022-11-21T14:22:45.623Z,99772.84
2022-11-21T14:25:22.040Z,99760.88
2022-11-21T14:27:54.485Z,99765.94
2022-11-21T14:30:29.429Z,99759.97
2022-11-21T14:32:56.982Z,99753.06
2022-11-21T14:35:25.612Z,99757.44
2022-11-21T14:37:54.853Z,99748.84
2022-11-21T14:40:25.426Z,99752.28
2022-11-21T14:42:52.962Z,99742.78
2022-11-21T14:45:23.802Z,99745.41
2022-11-21T14:47:53.401Z,99739.31
2022-11-21T14:50:24.242Z,99731.63
2022-11-21T14:52:57.060Z,99735.09
2022-11-21T14:55:34.558Z,99735.09
2022-11-21T14:58:04.869Z,99730.72
2022-11-21T15:03:23.676Z,99717.00
2022-11-21T15:06:04.607Z,99703.22
2022-11-21T15:11:26.788Z,99716.13
2022-11-21T15:14:19.523Z,99717.91
2022-11-21T15:16:49.031Z,99711.84
2022-11-21T15:19:25.649Z,99692.06
2022-11-21T15:21:56.538Z,99692.97
2022-11-21T15:24:40.070Z,99694.66
2022-11-21T15:27:29.348Z,99680.91
2022-11-21T15:30:12.348Z,99687.00
2022-11-21T15:33:15.662Z,99683.50
2022-11-21T15:35:56.544Z,99673.16
2022-11-21T15:38:26.493Z,99661.16
2022-11-21T15:41:02.839Z,99649.06
2022-11-21T15:43:41.185Z,99633.63
2022-11-21T15:46:17.703Z,99625.81
2022-11-21T15:49:30.922Z,99614.66
2022-11-21T15:52:09.956Z,99620.75
2022-11-21T15:54:38.347Z,99619.94
2022-11-21T15:57:05.791Z,99605.28
2022-11-21T15:59:33.251Z,99611.28
2022-11-21T16:02:00.759Z,99604.44
2022-11-21T16:04:29.277Z,99603.56
2022-11-21T16:06:56.833Z,99594.19
2022-11-21T16:09:25.118Z,99595.81
2022-11-21T16:11:52.640Z,99613.09
2022-11-21T16:14:20.253Z,99602.75
2022-11-21T16:16:47.897Z,99613.09
2022-11-21T16:19:16.086Z,99605.34
2022-11-21T16:21:44.003Z,99604.47
2022-11-21T16:24:11.515Z,99594.16
2022-11-21T16:26:39.040Z,99594.13
2022-11-21T16:29:06.629Z,99592.44
2022-11-21T16:31:34.303Z,99585.66
2022-11-21T16:34:01.897Z,99577.03
2022-11-21T16:36:31.209Z,99566.69
2022-11-21T16:39:06.892Z,99564.94
2022-11-21T16:41:35.737Z,99557.19
2022-11-21T16:44:03.914Z,99560.69
2022-11-21T16:46:31.439Z,99558.16
2022-11-21T16:49:01.242Z,99540.91
2022-11-21T16:51:29.122Z,99542.59
2022-11-21T16:54:00.636Z,99537.47
2022-11-21T16:56:29.167Z,99534.03
2022-11-21T16:58:56.869Z,99517.81
2022-11-21T17:01:27.074Z,99518.69
2022-11-21T17:03:54.745Z,99523.84
2022-11-21T17:06:29.449Z,99519.63
2022-11-21T17:08:57.372Z,99510.19
2022-11-21T17:11:28.244Z,99511.91
2022-11-21T17:13:56.963Z,99480.25
2022-11-21T17:16:24.789Z,99506.78
2022-11-21T17:19:00.580Z,99495.63
2022-11-21T17:21:29.458Z,99498.19
2022-11-21T17:23:57.292Z,99469.06
2022-11-21T17:26:27.201Z,99481.91
2022-11-21T17:29:04.919Z,99465.56
2022-11-21T17:31:33.455Z,99468.19
2022-11-21T17:34:01.945Z,99469.03
2022-11-21T17:36:31.034Z,99462.19
2022-11-21T17:38:59.205Z,99453.59
2022-11-21T17:41:27.705Z,99447.59
2022-11-21T17:43:59.857Z,99442.47
2022-11-21T17:46:28.965Z,99435.53
2022-11-21T17:48:59.177Z,99431.25
2022-11-21T17:51:33.626Z,99427.75
2022-11-21T17:54:02.413Z,99419.13
2022-11-21T17:56:32.807Z,99410.56
2022-11-21T17:59:00.711Z,99408.81
2022-11-21T18:01:28.983Z,99413.91
2022-11-21T18:03:58.888Z,99424.28
2022-11-21T18:06:29.503Z,99415.72
2022-11-21T18:08:58.655Z,99408.88
2022-11-21T18:11:34.459Z,99418.22
2022-11-21T18:14:07.262Z,99410.50
2022-11-21T18:16:35.633Z,99411.38
2022-11-21T18:19:03.799Z,99413.94
2022-11-21T18:21:35.648Z,99405.31
2022-11-21T18:24:03.964Z,99400.16
2022-11-21T18:26:34.665Z,99367.63
2022-11-21T18:29:34.775Z,99393.28
2022-11-21T18:31:53.209Z,99381.22
2022-11-21T18:34:21.303Z,99383.78
2022-11-21T18:36:49.323Z,99344.41
2022-11-21T18:39:17.245Z,99366.47
2022-11-21T18:41:45.212Z,99358.78
2022-11-21T18:44:21.289Z,99356.16
2022-11-21T18:46:51.701Z,99355.34
2022-11-21T18:49:19.985Z,99346.72
2022-11-21T18:51:51.243Z,99346.69
2022-11-21T18:54:19.244Z,99351.81
2022-11-21T18:56:47.593Z,99339.81
2022-11-21T18:59:15.967Z,99346.66
2022-11-21T19:01:43.997Z,99330.31
2022-11-21T19:04:12.425Z,99337.13
2022-11-21T19:06:40.282Z,99332.75
2022-11-21T19:09:08.528Z,99326.66
2022-11-21T19:11:36.830Z,99324.09
2022-11-21T19:14:05.841Z,99307.69
2022-11-21T19:16:35.221Z,99315.47
2022-11-21T19:21:54.634Z,99316.44
2022-11-21T19:24:23.620Z,99307.78
2022-11-21T19:26:51.588Z,99317.22
2022-11-21T19:29:19.770Z,99312.13
2022-11-21T19:31:47.643Z,99308.72
2022-11-21T19:34:16.852Z,99307.97
2022-11-21T19:36:45.832Z,99302.78
2022-11-21T19:39:14.211Z,99298.44
2022-11-21T19:41:42.693Z,99305.41
2022-11-21T19:44:11.579Z,99301.13
2022-11-21T19:46:40.872Z,99302.09
2022-11-21T19:49:11.525Z,99296.91
2022-11-21T19:51:41.689Z,99285.78
2022-11-21T19:54:12.143Z,99296.16
2022-11-21T19:56:40.284Z,99299.53
2022-11-21T19:59:07.773Z,99290.09
2022-11-21T20:01:36.136Z,99264.44
2022-11-21T20:04:05.873Z,99281.59
2022-11-21T20:06:38.919Z,99285.03
2022-11-21T20:09:08.237Z,99287.63
2022-11-21T20:11:36.339Z,99278.19
2022-11-21T20:14:03.889Z,99278.19
2022-11-21T20:16:37.493Z,99270.47
2022-11-21T20:19:07.821Z,99255.81
2022-11-21T20:21:35.542Z,99254.19
2022-11-21T20:24:03.680Z,99245.59
2022-11-21T20:26:31.391Z,99243.91
2022-11-21T20:28:58.925Z,99243.03
2022-11-21T20:31:32.225Z,99238.75
2022-11-21T20:34:06.210Z,99242.13
2022-11-21T20:36:36.722Z,99235.25
2022-11-21T20:39:08.827Z,99236.94
2022-11-21T20:41:37.867Z,99234.47
2022-11-21T20:45:07.131Z,99238.72
2022-11-21T20:47:01.697Z,99242.13
2022-11-21T20:49:29.393Z,99236.94
2022-11-21T20:54:45.248Z,99223.22
2022-11-21T20:57:15.156Z,99228.41
2022-11-21T20:59:43.287Z,99218.09
2022-11-21T21:02:13.714Z,99218.06
2022-11-21T21:04:41.370Z,99212.06
2022-11-21T21:07:09.164Z,99212.84
2022-11-21T21:09:36.930Z,99212.84
2022-11-21T21:12:05.635Z,99211.13
2022-11-21T21:14:33.245Z,99207.66
2022-11-21T21:17:00.953Z,99216.28
2022-11-21T21:19:29.041Z,99211.13
2022-11-21T21:21:56.878Z,99200.81
2022-11-21T21:24:25.281Z,99199.09
2022-11-21T21:26:52.854Z,99192.22
2022-11-21T21:29:21.811Z,99195.72
2022-11-21T21:31:51.897Z,99178.50
2022-11-21T21:34:21.350Z,99181.09
2022-11-21T21:36:49.427Z,99176.78
2022-11-21T21:39:21.963Z,99181.06
2022-11-21T21:41:49.944Z,99178.41
2022-11-21T21:44:20.409Z,99172.44
2022-11-21T21:46:49.138Z,99179.31
2022-11-21T21:49:16.778Z,99175.00
2022-11-21T21:51:44.294Z,99171.50
2022-11-21T21:54:19.940Z,99173.25
2022-11-21T21:56:48.800Z,99170.75
2022-11-21T21:59:18.251Z,99169.00
2022-11-21T22:01:45.974Z,99157.00
2022-11-21T22:04:13.844Z,99170.69
2022-11-21T22:06:41.729Z,99165.59
2022-11-21T22:09:09.295Z,99151.81
2022-11-21T22:11:38.471Z,99156.94
2022-11-21T22:14:17.428Z,99151.78
2022-11-21T22:16:45.162Z,99148.31
2022-11-21T22:19:13.070Z,99150.00
2022-11-21T22:21:40.640Z,99150.91
2022-11-21T22:24:26.398Z,99137.09
2022-11-21T22:26:54.678Z,99149.97
2022-11-21T22:29:22.263Z,99149.06
2022-11-21T22:31:50.824Z,99137.97
2022-11-21T22:34:18.663Z,99145.69
2022-11-21T22:36:46.820Z,99135.34
2022-11-21T22:39:15.348Z,99127.69
2022-11-21T22:41:42.884Z,99121.59
2022-11-21T22:44:10.467Z,99110.53
2022-11-21T22:46:38.242Z,99110.41
2022-11-21T22:49:05.707Z,99106.97
2022-11-21T22:51:34.687Z,99109.56
2022-11-21T22:54:02.255Z,99099.22
2022-11-21T22:56:30.140Z,99104.44
2022-11-21T22:58:57.669Z,99116.38
2022-11-21T23:01:27.025Z,99112.91
2022-11-21T23:03:56.626Z,99120.63
2022-11-21T23:06:26.631Z,99123.13
2022-11-21T23:08:55.956Z,99120.59
2022-11-21T23:11:27.789Z,99119.69
2022-11-21T23:13:56.780Z,99104.22
2022-11-21T23:16:24.486Z,99106.78
2022-11-21T23:18:56.530Z,99097.31
2022-11-21T23:21:24.268Z,99104.97
2022-11-21T23:23:51.932Z,99092.13
2022-11-21T23:26:20.343Z,99095.50
2022-11-21T23:28:48.018Z,99088.66
2022-11-21T23:31:15.475Z,99100.69
2022-11-21T23:33:43.135Z,99099.78
2022-11-21T23:36:10.695Z,99098.91
2022-11-21T23:38:38.297Z,99098.88
2022-11-21T23:41:05.738Z,99090.25
2022-11-21T23:43:33.197Z,99093.75
2022-11-21T23:46:02.085Z,99099.69
2022-11-21T23:48:31.954Z,99108.28
2022-11-21T23:51:00.693Z,99098.84
2022-11-21T23:53:28.295Z,99107.44
2022-11-21T23:55:56.295Z,99112.59
2022-11-21T23:58:23.959Z,99092.84
